FW3790 Weather Reports


Display with metric or nautical units.
time (UTC)temp
F
wind
direction
speed
MPH
gust
MPH
rain 1hr
in
rain 24hr
in
rain mn
in
humidity
%
barometer
mb
20190320025018 37 40 1.0 2.0 0.00 0.00 0.00 55 1030.6
20190320024019 37 40 1.0 3.0 0.00 0.00 0.00 55 1030.4
20190320023018 37 40 1.0 2.0 0.00 0.00 0.00 54 1030.6
20190320022018 37 0.0 1.0 0.00 0.00 0.00 52 1030.5
20190320021018 38 0.0 1.0 0.00 0.00 0.00 51 1030.4
20190320020018 38 40 1.0 2.0 0.00 0.00 0.00 50 1030.4
20190320015018 39 17 1.0 2.0 0.00 0.00 0.00 46 1030.4
20190320014018 40 40 1.0 3.0 0.00 0.00 0.00 43 1030.4
20190320013018 40 0.0 1.0 0.00 0.00 0.00 41 1030.4
20190320012019 40 0.0 1.0 0.00 0.00 0.00 43 1030.3
20190320011018 41 220 1.0 1.0 0.00 0.00 0.00 45 1030.2
20190320010019 41 220 1.0 1.0 0.00 0.00 0.00 44 1030.1
20190320005020 41 220 1.0 1.0 0.00 0.00 0.00 43 1030.0
20190320004018 41 220 1.0 1.0 0.00 0.00 0.00 42 1030.0
20190320003018 41 0.0 0.0 0.00 0.00 0.00 44 1029.8
20190320002018 42 0.0 1.0 0.00 0.00 0.00 43 1029.7
20190320001018 42 0.0 0.0 0.00 0.00 0.00 36 1029.5
20190320000018 42 0.0 1.0 0.00 0.00 0.00 38 1029.6
20190319235018 42 220 1.0 1.0 0.00 0.00 0.00 39 1029.4
20190319234018 43 220 1.0 2.0 0.00 0.00 0.00 36 1029.4
20190319233018 43 0.0 0.0 0.00 0.00 0.00 33 1029.2
20190319232018 44 0.0 1.0 0.00 0.00 0.00 33 1029.2
20190319231018 44 0.0 0.0 0.00 0.00 0.00 34 1029.1
20190319230018 44 130 1.0 4.0 0.00 0.00 0.00 32 1029.1
20190319225018 45 175 1.0 3.0 0.00 0.00 0.00 30 1029.1
20190319224018 45 175 2.0 5.0 0.00 0.00 0.00 29 1029.0
20190319223018 46 197 2.0 6.0 0.00 0.00 0.00 29 1029.0
20190319222018 46 242 2.0 8.0 0.00 0.00 0.00 30 1029.0
20190319221018 47 265 4.0 11.0 0.00 0.00 0.00 29 1028.9
20190319220018 47 197 2.0 5.0 0.00 0.00 0.00 28 1028.9
20190319215018 47 242 3.0 6.0 0.00 0.00 0.00 29 1028.9
20190319214018 47 197 4.0 11.0 0.00 0.00 0.00 28 1028.9
20190319213018 48 220 4.0 10.0 0.00 0.00 0.00 29 1028.9
20190319212018 48 130 3.0 13.0 0.00 0.00 0.00 29 1028.9
20190319211018 48 197 3.0 10.0 0.00 0.00 0.00 29 1029.1
20190319210018 48 197 3.0 7.0 0.00 0.00 0.00 28 1029.2
20190319205018 47 220 1.0 6.0 0.00 0.00 0.00 30 1029.3
20190319204018 47 175 2.0 5.0 0.00 0.00 0.00 31 1029.2
20190319203018 46 152 4.0 9.0 0.00 0.00 0.00 30 1029.2
20190319202018 46 197 3.0 9.0 0.00 0.00 0.00 31 1029.2
20190319201018 47 175 3.0 8.0 0.00 0.00 0.00 30 1029.2
20190319200017 46 287 4.0 10.0 0.00 0.00 0.00 31 1029.3
20190319195018 45 220 3.0 9.0 0.00 0.00 0.00 32 1029.3
20190319194018 45 197 2.0 7.0 0.00 0.00 0.00 32 1029.2
20190319192017 46 175 5.0 12.0 0.00 0.00 0.00 29 1029.3
20190319191019 47 220 4.0 11.0 0.00 0.00 0.00 29 1029.3
20190319190017 46 197 4.0 10.0 0.00 0.00 0.00 29 1029.3
20190319185017 44 220 3.0 8.0 0.00 0.00 0.00 30 1029.3
20190319184018 44 220 4.0 9.0 0.00 0.00 0.00 32 1029.6
20190319183018 45 197 6.0 11.0 0.00 0.00 0.00 30 1029.7
20190319182017 45 220 3.0 10.0 0.00 0.00 0.00 30 1029.8
20190319181017 46 197 5.0 18.0 0.00 0.00 0.00 28 1030.0
20190319180018 45 220 4.0 10.0 0.00 0.00 0.00 29 1030.0
20190319175017 46 242 5.0 13.0 0.00 0.00 0.00 28 1030.2
20190319174017 47 265 4.0 11.0 0.00 0.00 0.00 29 1030.3
20190319173017 45 197 4.0 12.0 0.00 0.00 0.00 29 1030.4
20190319172017 45 265 6.0 12.0 0.00 0.00 0.00 29 1030.6
20190319171017 46 287 5.0 12.0 0.00 0.00 0.00 29 1030.7
20190319170018 45 197 4.0 10.0 0.00 0.00 0.00 32 1030.8
20190319165019 44 220 3.0 8.0 0.00 0.00 0.00 31 1030.8
20190319164017 44 197 3.0 8.0 0.00 0.00 0.00 34 1030.9
20190319163017 45 242 2.0 5.0 0.00 0.00 0.00 35 1031.0
20190319161017 44 197 2.0 5.0 0.00 0.00 0.00 37 1031.0
20190319160017 44 287 3.0 6.0 0.00 0.00 0.00 39 1031.1
20190319155017 43 242 3.0 8.0 0.00 0.00 0.00 41 1031.2
20190319154019 42 197 3.0 8.0 0.00 0.00 0.00 42 1031.3
20190319153017 42 242 2.0 7.0 0.00 0.00 0.00 44 1031.3
20190319152017 41 197 2.0 6.0 0.00 0.00 0.00 45 1031.4
20190319151017 40 220 3.0 8.0 0.00 0.00 0.00 46 1031.5
20190319150019 40 220 4.0 9.0 0.00 0.00 0.00 47 1031.5
20190319145019 40 287 2.0 5.0 0.00 0.00 0.00 47 1031.5
20190319144019 39 265 2.0 7.0 0.00 0.00 0.00 49 1031.4
20190319143017 38 220 2.0 6.0 0.00 0.00 0.00 51 1031.5
20190319142017 38 220 3.0 10.0 0.00 0.00 0.00 51 1031.5
20190319141019 38 265 3.0 7.0 0.00 0.00 0.00 52 1031.5
20190319140019 37 197 2.0 5.0 0.00 0.00 0.00 54 1031.5
20190319135019 37 220 2.0 7.0 0.00 0.00 0.00 56 1031.5
20190319134017 36 197 2.0 4.0 0.00 0.00 0.00 58 1031.5
20190319133019 36 265 2.0 7.0 0.00 0.00 0.00 58 1031.5
20190319132018 36 220 2.0 4.0 0.00 0.00 0.00 58 1031.5
20190319131019 35 197 2.0 6.0 0.00 0.00 0.00 57 1031.4
20190319130020 35 175 2.0 6.0 0.00 0.00 0.00 58 1031.4
20190319125018 35 220 1.0 4.0 0.00 0.00 0.00 58 1031.3
20190319124018 34 220 2.0 4.0 0.00 0.00 0.00 58 1031.3
20190319123023 33 220 1.0 2.0 0.00 0.00 0.00 60 1031.2
20190319122018 32 265 1.0 3.0 0.00 0.00 0.00 64 1031.0
20190319121019 30 265 1.0 2.0 0.00 0.00 0.00 70 1030.9
20190319120019 29 0.0 2.0 0.00 0.00 0.00 72 1030.8
20190319115018 28 0.0 1.0 0.00 0.00 0.00 72 1030.9
20190319114019 28 0.0 0.0 0.00 0.00 0.00 72 1030.7
20190319113019 28 0.0 1.0 0.00 0.00 0.00 76 1030.4
20190319112019 28 265 1.0 1.0 0.00 0.00 0.00 73 1030.4
20190319111019 28 0.0 0.0 0.00 0.00 0.00 73 1030.4
20190319110018 28 0.0 0.0 0.00 0.00 0.00 72 1030.2
20190319105018 28 0.0 0.0 0.00 0.00 0.00 72 1030.0
20190319104018 28 0.0 0.0 0.00 0.00 0.00 72 1030.0
20190319103018 28 0.0 1.0 0.00 0.00 0.00 72 1029.9
20190319102018 28 0.0 1.0 0.00 0.00 0.00 74 1029.6
20190319101018 28 0.0 1.0 0.00 0.00 0.00 76 1029.5
20190319100018 28 0.0 1.0 0.00 0.00 0.00 71 1029.6
20190319095018 28 0.0 1.0 0.00 0.00 0.00 71 1029.4
20190319094018 28 265 1.0 1.0 0.00 0.00 0.00 71 1029.3
20190319093018 28 0.0 1.0 0.00 0.00 0.00 70 1029.1
20190319092018 29 0.0 1.0 0.00 0.00 0.00 72 1029.0
20190319091019 29 265 1.0 2.0 0.00 0.00 0.00 71 1028.9
20190319090018 29 265 1.0 2.0 0.00 0.00 0.00 69 1028.8
20190319085018 29 0.0 1.0 0.00 0.00 0.00 68 1028.8
20190319084018 29 265 1.0 2.0 0.00 0.00 0.00 68 1028.7
20190319083018 29 265 1.0 2.0 0.00 0.00 0.00 66 1028.6
20190319082018 29 265 1.0 2.0 0.00 0.00 0.00 67 1028.5
20190319081018 29 265 1.0 3.0 0.00 0.00 0.00 68 1028.4
20190319080018 29 265 1.0 2.0 0.00 0.00 0.00 68 1028.5
20190319075018 29 265 1.0 2.0 0.00 0.00 0.00 69 1028.6
20190319074019 29 265 1.0 2.0 0.00 0.00 0.00 68 1028.6
20190319072018 29 265 2.0 3.0 0.00 0.00 0.00 69 1028.8
20190319071018 29 220 1.0 2.0 0.00 0.00 0.00 71 1028.9
20190319070018 29 0.0 2.0 0.00 0.00 0.00 71 1028.8
20190319065019 30 220 1.0 2.0 0.00 0.00 0.00 71 1028.9
20190319064018 30 220 1.0 2.0 0.00 0.00 0.00 70 1028.9
20190319063018 31 220 1.0 2.0 0.00 0.00 0.00 68 1028.7
20190319062018 31 265 3.0 5.0 0.00 0.00 0.00 65 1028.8
20190319061018 31 265 2.0 3.0 0.00 0.00 0.00 65 1028.4
20190319060019 31 265 2.0 4.0 0.00 0.00 0.00 67 1028.4
20190319055018 31 242 3.0 5.0 0.00 0.00 0.00 65 1028.5
20190319054018 32 242 4.0 5.0 0.00 0.00 0.00 59 1028.5
20190319053018 32 242 3.0 4.0 0.00 0.00 0.00 55 1028.3
20190319052018 32 242 3.0 4.0 0.00 0.00 0.00 57 1028.2
20190319051018 32 242 3.0 4.0 0.00 0.00 0.00 61 1028.2
20190319050018 32 242 3.0 5.0 0.00 0.00 0.00 59 1028.3
20190319045018 33 242 2.0 6.0 0.00 0.00 0.00 57 1028.2
20190319044017 33 242 3.0 5.0 0.00 0.00 0.00 53 1028.2
20190319043018 32 242 2.0 3.0 0.00 0.00 0.00 57 1028.2
20190319042018 33 242 2.0 4.0 0.00 0.00 0.00 56 1028.1
20190319041018 34 242 2.0 3.0 0.00 0.00 0.00 51 1027.9
20190319040017 35 242 1.0 2.0 0.00 0.00 0.00 48 1027.9
20190319035019 35 242 1.0 3.0 0.00 0.00 0.00 47 1027.9
20190319034019 35 242 1.0 2.0 0.00 0.00 0.00 48 1028.0
20190319033019 35 242 1.0 2.0 0.00 0.00 0.00 49 1027.9
20190319032018 36 220 2.0 3.0 0.00 0.00 0.00 43 1027.9
20190319031019 36 0.0 1.0 0.00 0.00 0.00 42 1027.9
20190319030019 36 220 1.0 2.0 0.00 0.00 0.00 42 1027.9